Time;durP1;ratioP1;P1;durP2;ratioP2;P2;SDS_P1;SDS_P2;PMS_P1;PMS_P2;Temp;Humidity;BMP_temperature;BMP_pressure;BME280_temperature;BME280_humidity;BME280_pressure;Samples;Min_cycle;Max_cycle;Signal;HPM_P1;HPM_P2
2023/01/27 00:00:49;;;;;;;;;;;5.90;90.40;;;4.78;73.41;101255.28;6150817;23;19921;-80
2023/01/27 00:03:17;;;;;;;;;;;5.90;89.80;;;4.73;73.82;101252.28;6150794;23;19917;-80
2023/01/27 00:05:44;;;;;;;;;;;5.90;89.90;;;4.78;74.00;101255.28;6149601;23;19917;-80
2023/01/27 00:08:11;;;;;;;;;;;5.90;90.00;;;4.80;74.15;101258.63;6150580;23;19922;-80
2023/01/27 00:10:39;;;;;;;;;;;5.90;90.10;;;4.82;73.61;101246.09;6150330;23;19920;-80
2023/01/27 00:15:51;;;;;;;;;;;5.90;89.70;;;4.80;73.38;101245.41;6150962;23;19917;-80
2023/01/27 00:18:18;;;;;;;;;;;5.90;89.50;;;4.76;72.79;101254.63;6151766;23;19927;-80
2023/01/27 00:26:18;;;;;;;;;;;5.90;89.10;;;4.60;73.65;101256.16;6151989;23;20259;-80
2023/01/27 00:28:47;;;;;;;;;;;5.90;89.20;;;4.57;73.50;101258.28;6152333;23;20011;-80
2023/01/27 00:34:07;;;;;;;;;;;5.90;89.20;;;4.51;73.42;101264.19;6150595;23;19920;-80
2023/01/27 00:36:35;;;;;;;;;;;5.80;88.90;;;4.53;73.39;101268.31;6150054;23;19920;-80
2023/01/27 00:39:05;;;;;;;;;;;5.80;89.10;;;4.62;73.65;101263.94;6150423;23;19917;-80
2023/01/27 00:41:33;;;;;;;;;;;5.80;89.20;;;4.63;73.65;101265.59;6151043;23;19999;-80
2023/01/27 00:44:01;;;;;;;;;;;5.80;89.20;;;4.56;73.66;101272.47;6152373;23;19924;-80
2023/01/27 00:46:28;;;;;;;;;;;5.80;89.10;;;4.56;73.71;101273.31;6152073;23;20069;-80
2023/01/27 00:48:55;;;;;;;;;;;5.80;89.50;;;4.55;73.78;101266.38;6152065;23;19930;-80
2023/01/27 00:51:23;;;;;;;;;;;5.80;89.40;;;4.53;74.32;101265.66;6150898;23;20291;-80
2023/01/27 00:53:50;;;;;;;;;;;5.80;89.70;;;4.61;74.44;101263.09;6151166;23;20003;-80
2023/01/27 00:56:18;;;;;;;;;;;5.80;89.90;;;4.70;74.09;101271.09;6151254;23;19916;-80
2023/01/27 00:58:46;;;;;;;;;;;5.80;90.00;;;4.62;73.76;101271.84;6150336;23;20267;-80
2023/01/27 01:01:15;;;;;;;;;;;5.80;89.50;;;4.67;73.80;101272.22;6152984;23;20133;-80
2023/01/27 01:03:43;;;;;;;;;;;5.80;89.60;;;4.67;73.50;101272.22;6152429;23;19920;-80
2023/01/27 01:06:11;;;;;;;;;;;5.80;89.50;;;4.58;73.35;101260.75;6150029;23;20496;-80
2023/01/27 01:08:39;;;;;;;;;;;5.80;89.50;;;4.69;73.99;101266.81;6152079;23;20328;-80
2023/01/27 01:11:06;;;;;;;;;;;5.80;89.70;;;4.68;73.68;101268.59;6149809;23;19920;-80
2023/01/27 01:13:33;;;;;;;;;;;5.80;89.70;;;4.68;73.52;101273.88;6152471;23;19999;-80
2023/01/27 01:16:06;;;;;;;;;;;5.90;89.50;;;4.68;73.34;101276.53;6149876;23;19924;-80
2023/01/27 01:18:34;;;;;;;;;;;5.90;89.50;;;4.66;72.71;101278.50;6152118;23;19926;-79
2023/01/27 01:21:01;;;;;;;;;;;5.80;88.90;;;4.51;73.13;101280.84;6150112;23;19925;-80
2023/01/27 01:23:28;;;;;;;;;;;5.80;88.90;;;4.47;73.01;101276.84;6152364;23;19920;-80
2023/01/27 01:25:57;;;;;;;;;;;5.80;88.90;;;4.44;73.24;101282.44;6151698;23;19920;-80
2023/01/27 01:28:24;;;;;;;;;;;5.80;89.00;;;4.40;74.05;101286.38;6151447;23;19921;-80
2023/01/27 01:30:51;;;;;;;;;;;5.70;89.30;;;4.46;73.91;101288.41;6152248;23;20005;-80
2023/01/27 01:33:20;;;;;;;;;;;5.70;89.50;;;4.54;73.77;101285.84;6151845;23;19948;-80
2023/01/27 01:35:47;;;;;;;;;;;5.70;89.70;;;4.56;73.63;101289.16;6151762;23;19927;-80
2023/01/27 01:38:14;;;;;;;;;;;5.80;89.50;;;4.43;73.49;101291.34;6151021;23;19927;-80
2023/01/27 01:40:42;;;;;;;;;;;5.80;89.20;;;4.47;73.77;101295.34;6150252;23;19921;-80
2023/01/27 01:43:13;;;;;;;;;;;5.70;89.30;;;4.33;73.41;101288.75;6150269;23;20004;-79
2023/01/27 01:45:53;;;;;;;;;;;5.70;89.10;;;4.34;74.47;101293.09;6149882;23;20264;-81
2023/01/27 01:48:34;;;;;;;;;;;5.70;89.40;;;4.36;74.12;101295.56;6149975;23;19924;-80
2023/01/27 01:51:07;;;;;;;;;;;5.60;89.40;;;4.36;74.97;101304.31;6149662;23;20502;-80
2023/01/27 01:53:38;;;;;;;;;;;5.70;90.00;;;4.36;74.43;101303.50;6150136;23;20310;-80
2023/01/27 01:56:09;;;;;;;;;;;5.60;89.90;;;4.37;74.87;101308.63;6151386;23;20328;-81
2023/01/27 01:58:36;;;;;;;;;;;5.60;90.10;;;4.30;74.99;101306.75;6149693;23;20319;-80
2023/01/27 02:01:05;;;;;;;;;;;5.60;90.00;;;4.26;75.23;101314.13;6151656;23;19922;-80
2023/01/27 02:03:34;;;;;;;;;;;5.60;90.20;;;4.28;75.36;101306.03;6151712;23;19944;-80
2023/01/27 02:06:01;;;;;;;;;;;5.60;90.30;;;4.34;74.75;101316.84;6150190;23;20394;-80
2023/01/27 02:08:33;;;;;;;;;;;5.60;90.10;;;4.31;74.13;101317.13;6151166;23;19920;-80
2023/01/27 02:11:01;;;;;;;;;;;5.50;89.70;;;4.27;73.93;101320.22;6149991;23;19947;-80
2023/01/27 02:13:28;;;;;;;;;;;5.50;89.50;;;4.22;73.99;101319.84;6150306;23;20012;-80
2023/01/27 02:15:55;;;;;;;;;;;5.50;89.50;;;4.24;73.88;101317.88;6151409;23;19928;-80
2023/01/27 02:18:22;;;;;;;;;;;5.50;89.50;;;4.28;73.95;101312.16;6146619;23;20489;-81
2023/01/27 02:20:53;;;;;;;;;;;5.50;89.60;;;4.25;73.71;101322.19;6149638;23;19920;-81
2023/01/27 02:23:27;;;;;;;;;;;5.50;89.50;;;4.21;73.64;101320.84;6151581;23;19921;-81
2023/01/27 02:25:59;;;;;;;;;;;5.50;89.30;;;4.23;73.57;101322.31;6151201;23;19948;-81
2023/01/27 02:28:28;;;;;;;;;;;5.50;88.90;;;4.12;73.13;101315.44;6149896;23;20363;-81
2023/01/27 02:30:55;;;;;;;;;;;5.50;88.50;;;4.01;73.18;101320.94;6150105;23;19921;-81
2023/01/27 02:33:23;;;;;;;;;;;5.40;88.30;;;4.19;73.02;101330.69;6149535;23;19921;-81
2023/01/27 02:35:56;;;;;;;;;;;5.40;88.70;;;3.96;72.26;101314.44;6149102;23;19947;-81
2023/01/27 02:38:23;;;;;;;;;;;5.40;87.80;;;3.98;72.58;101323.03;6150527;23;20303;-81
2023/01/27 02:40:53;;;;;;;;;;;5.30;88.10;;;3.95;72.42;101324.16;6148819;23;20023;-81
2023/01/27 02:43:23;;;;;;;;;;;5.30;88.10;;;4.01;73.12;101325.41;6149653;23;19920;-81
2023/01/27 02:45:50;;;;;;;;;;;5.30;88.50;;;4.09;73.24;101322.81;6149442;23;20236;-81
2023/01/27 02:48:17;;;;;;;;;;;5.30;88.70;;;4.05;73.06;101332.88;6149074;23;19931;-81
2023/01/27 02:50:44;;;;;;;;;;;5.30;88.60;;;4.18;72.99;101329.03;6148957;23;19916;-81
2023/01/27 02:53:11;;;;;;;;;;;5.40;88.90;;;4.12;72.87;101331.28;6148772;23;19920;-81
2023/01/27 02:55:38;;;;;;;;;;;5.40;88.60;;;4.25;73.00;101322.19;6149103;23;19923;-81
2023/01/27 02:58:06;;;;;;;;;;;5.50;88.90;;;4.30;72.76;101331.34;6149011;23;19955;-81
2023/01/27 03:00:47;;;;;;;;;;;5.40;88.90;;;4.12;73.37;101331.28;6148720;23;20707;-81
2023/01/27 03:03:14;;;;;;;;;;;5.40;88.70;;;4.23;73.08;101324.13;6149335;23;19948;-81
2023/01/27 03:05:41;;;;;;;;;;;5.40;88.90;;;4.20;73.03;101334.97;6149148;23;19962;-81
2023/01/27 03:08:08;;;;;;;;;;;5.40;88.90;;;4.20;73.64;101327.94;6148840;23;20295;-81
2023/01/27 03:10:36;;;;;;;;;;;5.40;89.10;;;4.11;73.43;101332.28;6149296;23;19924;-81
2023/01/27 03:13:03;;;;;;;;;;;5.40;89.10;;;4.04;74.24;101325.06;6148705;23;19920;-81
2023/01/27 03:18:16;;;;;;;;;;;5.40;89.50;;;4.27;73.82;101334.25;6148435;23;19916;-81
2023/01/27 03:20:45;;;;;;;;;;;5.40;89.50;;;4.31;73.68;101329.53;6149354;23;20399;-81
2023/01/27 03:23:13;;;;;;;;;;;5.50;89.60;;;4.35;73.60;101329.06;6149885;23;20596;-81
2023/01/27 03:25:41;;;;;;;;;;;5.50;89.50;;;4.36;73.41;101324.63;6148716;23;20413;-81
2023/01/27 03:28:08;;;;;;;;;;;5.50;89.50;;;4.21;73.78;101326.13;6147969;23;19924;-81
2023/01/27 03:30:42;;;;;;;;;;;5.50;89.50;;;4.16;74.26;101328.38;6148668;23;20472;-81
2023/01/27 03:33:16;;;;;;;;;;;5.40;89.50;;;4.24;74.20;101331.06;6149465;23;20233;-81
2023/01/27 03:47:05;;;;;;;;;;;5.40;90.10;;;4.14;75.25;101324.03;6150264;23;19928;-81
2023/01/27 03:49:33;;;;;;;;;;;5.40;90.10;;;3.99;75.56;101330.81;6150208;23;19920;-81
2023/01/27 03:52:00;;;;;;;;;;;5.40;90.30;;;4.09;75.72;101328.09;6151187;23;19976;-81
2023/01/27 03:54:27;;;;;;;;;;;5.40;90.40;;;4.20;75.40;101329.69;6149345;23;19920;-81
2023/01/27 03:56:54;;;;;;;;;;;5.40;90.50;;;4.17;75.82;101325.56;6150715;23;20448;-81
2023/01/27 03:59:22;;;;;;;;;;;5.50;90.60;;;4.19;75.28;101333.34;6148488;23;19999;-81
2023/01/27 04:01:49;;;;;;;;;;;5.50;90.60;;;4.22;75.57;101333.88;6151912;23;19916;-81
2023/01/27 04:07:02;;;;;;;;;;;5.50;90.60;;;4.37;75.23;101323.63;6150829;23;20583;-81
2023/01/27 04:09:30;;;;;;;;;;;5.60;90.60;;;4.42;75.03;101328.47;6152267;23;19946;-81
2023/01/27 04:11:58;;;;;;;;;;;5.60;90.40;;;4.40;75.06;101331.28;6150408;23;19935;-81
2023/01/27 04:14:27;;;;;;;;;;;5.50;90.50;;;4.45;75.24;101325.53;6151180;23;19971;-81
2023/01/27 04:16:57;;;;;;;;;;;5.60;90.50;;;4.52;74.88;101329.22;6149312;23;19916;-81
2023/01/27 04:19:24;;;;;;;;;;;5.70;90.60;;;4.57;74.46;101335.72;6150668;23;19932;-81
2023/01/27 04:21:52;;;;;;;;;;;5.70;90.40;;;4.46;75.04;101328.03;6152250;23;19943;-81
2023/01/27 04:24:23;;;;;;;;;;;5.70;90.40;;;4.48;74.99;101328.69;6151398;23;20362;-81
2023/01/27 04:26:53;;;;;;;;;;;5.70;90.40;;;4.50;74.72;101329.38;6152261;23;19920;-81
2023/01/27 04:29:21;;;;;;;;;;;5.70;90.40;;;4.50;75.18;101336.47;6152193;23;19979;-81
2023/01/27 04:31:48;;;;;;;;;;;5.70;90.40;;;4.45;75.15;101334.28;6152391;23;19955;-81
2023/01/27 04:34:15;;;;;;;;;;;5.70;90.40;;;4.44;75.36;101340.56;6151629;23;19947;-81
2023/01/27 04:36:42;;;;;;;;;;;5.70;90.60;;;4.49;74.80;101335.66;6151532;23;19916;-81
2023/01/27 04:39:10;;;;;;;;;;;5.70;90.60;;;4.48;75.16;101333.13;6152224;23;19920;-81
2023/01/27 04:41:38;;;;;;;;;;;5.60;90.50;;;4.53;74.78;101336.16;6151993;23;20339;-81
2023/01/27 04:44:06;;;;;;;;;;;5.70;90.60;;;4.44;75.26;101335.28;6150920;23;19916;-81
2023/01/27 04:46:34;;;;;;;;;;;5.70;90.60;;;4.44;75.60;101330.00;6151453;23;19920;-81
2023/01/27 04:49:01;;;;;;;;;;;5.60;90.80;;;4.53;75.29;101342.28;6151298;23;19928;-81
2023/01/27 04:51:28;;;;;;;;;;;5.70;90.80;;;4.49;75.20;101334.78;6152419;23;19920;-81
2023/01/27 04:53:55;;;;;;;;;;;5.70;90.80;;;4.53;75.36;101339.63;6150544;23;19917;-81
2023/01/27 04:56:25;;;;;;;;;;;5.70;90.80;;;4.53;75.39;101341.44;6151585;23;19921;-81
2023/01/27 04:58:54;;;;;;;;;;;5.70;90.90;;;4.54;75.19;101346.59;6151327;23;19916;-81
2023/01/27 05:01:21;;;;;;;;;;;5.70;90.90;;;4.47;75.11;101345.53;6152487;23;20003;-81
2023/01/27 05:03:49;;;;;;;;;;;5.70;90.80;;;4.38;76.08;101360.44;6152178;23;19924;-81
2023/01/27 05:06:16;;;;;;;;;;;5.70;91.00;;;4.43;75.79;101360.00;6150641;23;19940;-81
2023/01/27 05:08:43;;;;;;;;;;;5.70;91.00;;;4.51;75.75;101357.44;6151611;23;20366;-86
2023/01/27 05:11:11;;;;;;;;;;;5.70;91.10;;;4.46;75.75;101350.97;6150172;23;19923;-81
2023/01/27 05:13:39;;;;;;;;;;;5.70;91.00;;;4.54;75.68;101354.53;6152136;23;19923;-81
2023/01/27 05:16:10;;;;;;;;;;;5.70;91.10;;;4.47;75.82;101360.53;6150527;23;19995;-81
2023/01/27 05:18:38;;;;;;;;;;;5.70;91.00;;;4.42;75.79;101360.97;6151542;23;19917;-81
2023/01/27 05:21:06;;;;;;;;;;;5.70;91.00;;;4.43;76.10;101357.34;6152478;23;19920;-81
2023/01/27 05:23:36;;;;;;;;;;;5.70;91.00;;;4.44;76.05;101352.91;6151634;23;19920;-81
2023/01/27 05:26:05;;;;;;;;;;;5.70;91.10;;;4.38;76.18;101352.53;6151746;23;19926;-82
2023/01/27 05:28:32;;;;;;;;;;;5.70;91.20;;;4.46;75.96;101358.88;6151568;23;20347;-82
2023/01/27 05:31:04;;;;;;;;;;;5.70;91.20;;;4.32;76.51;101358.41;6151685;23;19924;-82
2023/01/27 05:33:33;;;;;;;;;;;5.60;91.20;;;4.46;76.18;101356.25;6152138;23;19922;-81
2023/01/27 05:36:01;;;;;;;;;;;5.70;91.30;;;4.32;76.38;101360.22;6151677;23;20279;-81
2023/01/27 05:38:28;;;;;;;;;;;5.70;91.20;;;4.23;77.03;101358.47;6151465;23;19916;-82
2023/01/27 05:40:57;;;;;;;;;;;5.60;91.30;;;4.30;77.00;101364.81;6149136;23;20228;-81
2023/01/27 05:43:25;;;;;;;;;;;5.70;91.60;;;4.35;76.63;101366.03;6150210;23;20625;-81
2023/01/27 05:45:52;;;;;;;;;;;5.70;91.60;;;4.31;76.93;101362.03;6150135;23;19947;-81
2023/01/27 05:48:19;;;;;;;;;;;5.60;91.20;;;4.25;76.87;101364.44;6151179;23;19927;-81
2023/01/27 05:50:55;;;;;;;;;;;5.60;91.20;;;4.36;76.36;101372.16;6151363;23;19967;-81
2023/01/27 05:53:23;;;;;;;;;;;5.60;91.40;;;4.26;76.75;101366.09;6151233;23;19948;-81
2023/01/27 05:55:50;;;;;;;;;;;5.60;91.30;;;4.28;76.82;101372.06;6150675;23;19924;-81
2023/01/27 05:58:17;;;;;;;;;;;5.60;91.40;;;4.35;76.67;101362.56;6150764;23;20093;-80
2023/01/27 06:00:45;;;;;;;;;;;5.60;91.50;;;4.35;76.41;101366.03;6151322;23;19920;-80
2023/01/27 06:03:12;;;;;;;;;;;5.60;91.30;;;4.33;77.02;101362.69;6151719;23;19920;-84
2023/01/27 06:05:39;;;;;;;;;;;5.60;91.50;;;4.46;76.37;101362.34;6149510;23;19920;-82
2023/01/27 06:08:07;;;;;;;;;;;5.70;91.50;;;4.49;76.10;101364.72;6151004;23;20545;-82
2023/01/27 06:10:36;;;;;;;;;;;5.60;91.30;;;4.48;75.88;101368.31;6151448;23;19920;-82
2023/01/27 06:13:03;;;;;;;;;;;5.60;91.40;;;4.57;75.93;101364.78;6151211;23;19916;-82
2023/01/27 06:15:31;;;;;;;;;;;5.70;91.50;;;4.57;75.91;101370.06;6148785;23;20010;-81
2023/01/27 06:17:58;;;;;;;;;;;5.70;91.50;;;4.48;76.34;101372.75;6149348;23;20359;-81
2023/01/27 06:20:25;;;;;;;;;;;5.70;91.40;;;4.53;75.91;101370.50;6150992;23;20332;-82
2023/01/27 06:22:52;;;;;;;;;;;5.70;91.30;;;4.47;76.23;101374.56;6150899;23;19944;-81
2023/01/27 06:25:20;;;;;;;;;;;5.70;91.30;;;4.53;76.15;101373.97;6147429;23;20011;-81
2023/01/27 06:27:47;;;;;;;;;;;5.70;91.30;;;4.55;76.01;101372.03;6150524;23;20586;-82
2023/01/27 06:30:14;;;;;;;;;;;5.70;91.40;;;4.65;75.81;101377.25;6149063;23;19927;-82
2023/01/27 06:32:41;;;;;;;;;;;5.80;91.40;;;4.71;75.55;101375.81;6150652;23;20337;-80
2023/01/27 06:35:09;;;;;;;;;;;5.80;91.40;;;4.69;75.59;101378.59;6150727;23;19916;-79
2023/01/27 06:37:36;;;;;;;;;;;5.80;91.20;;;4.65;75.43;101382.53;6150237;23;19999;-81
2023/01/27 06:40:03;;;;;;;;;;;5.80;91.10;;;4.63;75.32;101389.75;6150507;23;19944;-81
2023/01/27 06:42:36;;;;;;;;;;;5.80;91.00;;;4.49;75.90;101391.13;6151003;23;20347;-81
2023/01/27 06:45:04;;;;;;;;;;;5.80;91.00;;;4.54;76.34;101399.44;6150842;23;19917;-81
2023/01/27 06:47:31;;;;;;;;;;;5.80;91.10;;;4.60;76.12;101401.47;6149168;23;19925;-81
2023/01/27 06:49:58;;;;;;;;;;;5.80;91.00;;;4.68;75.73;101402.50;6150360;23;20003;-81
2023/01/27 06:52:25;;;;;;;;;;;5.80;91.00;;;4.73;75.48;101408.19;6150856;23;19924;-81
2023/01/27 06:54:52;;;;;;;;;;;5.90;91.00;;;4.59;75.39;101406.91;6150291;23;19923;-81
2023/01/27 06:57:19;;;;;;;;;;;5.80;90.70;;;4.60;75.77;101412.03;6150262;23;19939;-81
2023/01/27 06:59:47;;;;;;;;;;;5.80;90.80;;;4.68;75.42;101408.63;6150910;23;19921;-81
2023/01/27 07:02:14;;;;;;;;;;;5.80;90.80;;;4.73;75.06;101416.94;6150206;23;19916;-81
2023/01/27 07:04:41;;;;;;;;;;;5.90;90.90;;;4.74;75.08;101415.16;6148573;23;20358;-81
2023/01/27 07:07:08;;;;;;;;;;;5.90;90.80;;;4.63;75.55;101424.09;6147797;23;19920;-81
2023/01/27 07:09:35;;;;;;;;;;;5.90;90.80;;;4.65;75.46;101420.34;6150930;23;20361;-81
2023/01/27 07:12:02;;;;;;;;;;;5.90;90.90;;;4.50;75.91;101424.47;6151507;23;19917;-81
2023/01/27 07:14:29;;;;;;;;;;;5.80;90.70;;;4.57;75.55;101425.53;6150923;23;19999;-81
2023/01/27 07:16:57;;;;;;;;;;;5.80;90.80;;;4.55;75.48;101426.66;6150446;23;19934;-81
2023/01/27 07:19:24;;;;;;;;;;;5.80;90.80;;;4.54;76.00;101428.47;6149060;23;19920;-81
2023/01/27 07:21:51;;;;;;;;;;;5.80;91.00;;;4.60;75.89;101429.69;6150715;23;19920;-81
2023/01/27 07:24:18;;;;;;;;;;;5.80;91.20;;;4.63;75.95;101442.59;6151147;23;20323;-81
2023/01/27 07:26:46;;;;;;;;;;;5.80;91.20;;;4.57;76.24;101433.44;6148559;23;19921;-81
2023/01/27 07:29:13;;;;;;;;;;;5.80;91.20;;;4.45;76.80;101434.66;6150917;23;19916;-81
2023/01/27 07:31:40;;;;;;;;;;;5.80;91.20;;;4.43;76.75;101436.59;6150125;23;19928;-81
2023/01/27 07:34:08;;;;;;;;;;;5.80;91.30;;;4.53;76.76;101439.19;6150634;23;19963;-81
2023/01/27 07:36:35;;;;;;;;;;;5.80;91.50;;;4.55;76.72;101439.88;6151554;23;19920;-81
2023/01/27 07:39:02;;;;;;;;;;;5.80;91.40;;;4.51;76.84;101439.34;6152151;23;19927;-80
2023/01/27 07:41:30;;;;;;;;;;;5.80;91.40;;;4.52;76.69;101435.72;6152601;23;19917;-81
2023/01/27 07:43:57;;;;;;;;;;;5.80;91.40;;;4.54;76.65;101432.91;6150989;23;20008;-82
2023/01/27 07:46:26;;;;;;;;;;;5.80;91.50;;;4.47;76.74;101448.53;6150222;23;19920;-81
2023/01/27 07:48:53;;;;;;;;;;;5.80;91.40;;;4.49;77.23;101440.44;6152914;23;19925;-81
2023/01/27 07:51:22;;;;;;;;;;;5.80;91.60;;;4.60;76.84;101461.41;6152383;23;20355;-81
2023/01/27 07:53:49;;;;;;;;;;;5.80;91.70;;;4.62;76.40;101433.84;6151524;23;19926;-82
2023/01/27 07:56:16;;;;;;;;;;;5.80;91.70;;;4.62;76.86;101436.47;6151404;23;19921;-82
2023/01/27 07:58:43;;;;;;;;;;;5.80;91.70;;;4.71;76.62;101449.78;6152307;23;20008;-82
2023/01/27 08:01:12;;;;;;;;;;;5.80;91.70;;;4.60;76.46;101446.38;6153181;23;19931;-81
2023/01/27 08:03:39;;;;;;;;;;;5.80;91.80;;;4.63;76.85;101443.41;6152783;23;19928;-82
2023/01/27 08:06:07;;;;;;;;;;;5.80;91.80;;;4.71;76.59;101455.06;6152208;23;20615;-82
2023/01/27 08:08:36;;;;;;;;;;;5.90;91.90;;;4.61;76.68;101457.78;6151093;23;19920;-82
2023/01/27 08:11:06;;;;;;;;;;;5.80;91.70;;;4.51;77.33;101454.34;6152003;23;19924;-82
2023/01/27 08:13:33;;;;;;;;;;;5.80;91.70;;;4.64;76.79;101453.03;6153309;23;19920;-82
2023/01/27 08:16:04;;;;;;;;;;;5.80;91.80;;;4.72;76.62;101456.72;6151984;23;19920;-82
2023/01/27 08:18:32;;;;;;;;;;;5.90;92.00;;;4.74;76.64;101457.44;6151690;23;19944;-78
2023/01/27 08:20:59;;;;;;;;;;;5.90;91.80;;;4.58;76.99;101447.50;6151478;23;19955;-78
2023/01/27 08:23:26;;;;;;;;;;;5.90;91.60;;;4.59;77.00;101452.66;6153134;23;19920;-78
2023/01/27 08:25:56;;;;;;;;;;;5.90;91.80;;;4.71;76.99;101453.25;6152702;23;20526;-78
2023/01/27 08:28:26;;;;;;;;;;;5.90;92.00;;;4.73;76.78;101463.66;6151454;23;19944;-79
2023/01/27 08:30:53;;;;;;;;;;;5.90;92.00;;;4.61;77.28;101465.69;6153412;23;19938;-78
2023/01/27 08:33:21;;;;;;;;;;;5.90;91.80;;;4.59;77.27;101457.94;6152685;23;20363;-78
2023/01/27 08:35:48;;;;;;;;;;;5.90;92.00;;;4.54;77.52;101462.81;6151353;23;20271;-79
2023/01/27 08:38:17;;;;;;;;;;;5.90;92.00;;;4.62;77.42;101467.34;6150135;23;19999;-79
2023/01/27 08:40:45;;;;;;;;;;;5.90;92.00;;;4.66;77.18;101463.44;6152638;23;20599;-78
2023/01/27 08:43:15;;;;;;;;;;;5.90;92.00;;;4.72;76.99;101462.84;6151754;23;19920;-79
2023/01/27 08:45:42;;;;;;;;;;;5.90;92.00;;;4.80;77.02;101470.03;6152038;23;19927;-80
2023/01/27 08:48:09;;;;;;;;;;;6.00;92.00;;;4.82;76.57;101466.25;6149066;23;19939;-80
2023/01/27 08:50:36;;;;;;;;;;;6.00;91.80;;;4.69;76.77;101472.91;6152752;23;19927;-80
2023/01/27 08:53:03;;;;;;;;;;;6.00;91.70;;;4.67;77.17;101480.13;6152363;23;20247;-79
2023/01/27 08:55:32;;;;;;;;;;;6.00;91.80;;;4.56;77.42;101471.41;6152691;23;20019;-78
2023/01/27 08:57:59;;;;;;;;;;;5.90;91.80;;;4.69;77.16;101480.81;6150404;23;19952;-80
2023/01/27 09:00:27;;;;;;;;;;;6.00;91.80;;;4.63;77.44;101476.94;6152739;23;19921;-81
2023/01/27 09:02:54;;;;;;;;;;;6.00;91.90;;;4.76;77.07;101489.81;6152666;23;20267;-81
2023/01/27 09:05:22;;;;;;;;;;;6.00;92.00;;;4.79;76.83;101489.53;6150944;23;19921;-82
2023/01/27 09:07:49;;;;;;;;;;;6.00;91.80;;;4.71;77.49;101492.06;6151881;23;19917;-81
2023/01/27 09:10:17;;;;;;;;;;;6.00;91.80;;;4.78;77.18;101496.63;6151515;23;19927;-81
2023/01/27 09:12:44;;;;;;;;;;;6.00;91.80;;;4.79;77.01;101497.44;6152285;23;19991;-81
2023/01/27 09:15:12;;;;;;;;;;;6.00;91.80;;;4.86;76.63;101509.09;6151896;23;19927;-81
2023/01/27 09:17:41;;;;;;;;;;;6.00;91.80;;;4.92;76.34;101500.56;6149560;23;19916;-81
2023/01/27 09:20:10;;;;;;;;;;;6.10;92.00;;;4.89;76.23;101506.16;6149394;23;19931;-81
2023/01/27 09:22:39;;;;;;;;;;;6.10;91.80;;;4.94;76.35;101519.75;6151900;23;19983;-80
2023/01/27 09:25:08;;;;;;;;;;;6.10;91.70;;;4.91;76.13;101512.94;6152607;23;19920;-81
2023/01/27 09:27:34;;;;;;;;;;;6.10;91.60;;;4.97;76.16;101518.59;6151239;23;20344;-81
2023/01/27 09:30:02;;;;;;;;;;;6.10;91.50;;;5.00;76.39;101515.69;6151262;23;19920;-81
2023/01/27 09:32:28;;;;;;;;;;;6.10;91.60;;;5.03;75.97;101524.16;6150994;23;20378;-81
2023/01/27 09:35:01;;;;;;;;;;;6.20;91.60;;;4.88;76.14;101517.69;6149817;23;19921;-81
2023/01/27 09:37:28;;;;;;;;;;;6.20;91.50;;;4.86;76.87;101522.28;6150667;23;19927;-81
2023/01/27 09:39:59;;;;;;;;;;;6.10;91.50;;;4.88;76.51;101520.31;6152092;23;19920;-81
2023/01/27 09:42:37;;;;;;;;;;;6.10;91.60;;;4.93;76.94;101527.81;6150979;23;19948;-81
2023/01/27 09:45:31;;;;;;;;;;;6.10;91.80;;;4.90;76.66;101529.78;6152324;23;19951;-81
2023/01/27 09:48:10;;;;;;;;;;;6.20;91.90;;;4.90;76.92;101526.31;6151280;23;20024;-81
2023/01/27 09:50:44;;;;;;;;;;;6.20;91.80;;;4.82;77.38;101536.78;6151416;23;19920;-81
2023/01/27 09:53:45;;;;;;;;;;;6.20;92.00;;;4.84;77.54;101534.84;6151667;23;19963;-80
2023/01/27 09:56:19;;;;;;;;;;;6.10;92.00;;;4.96;77.02;101528.34;6150579;23;20011;-81
2023/01/27 09:58:59;;;;;;;;;;;6.10;92.10;;;4.94;76.87;101543.53;6151289;23;20305;-82
2023/01/27 10:01:32;;;;;;;;;;;6.10;92.20;;;4.98;76.84;101534.34;6151897;23;19954;-80
2023/01/27 10:04:27;;;;;;;;;;;6.10;92.20;;;5.01;77.12;101526.09;6151771;23;20003;-80
2023/01/27 10:07:14;;;;;;;;;;;6.20;92.20;;;5.06;76.72;101523.84;6149849;23;20018;-80
2023/01/27 10:10:12;;;;;;;;;;;6.20;92.20;;;5.06;76.83;101536.22;6151343;23;20332;-80
2023/01/27 10:12:50;;;;;;;;;;;6.20;92.20;;;5.00;77.22;101532.38;6149245;23;19999;-80
2023/01/27 10:15:28;;;;;;;;;;;6.20;92.20;;;5.02;77.17;101530.41;6151331;23;19925;-80
2023/01/27 10:18:04;;;;;;;;;;;6.20;92.20;;;5.01;76.99;101531.38;6151210;23;19921;-80
2023/01/27 10:20:40;;;;;;;;;;;6.20;92.20;;;5.01;77.29;101535.84;6151491;23;19953;-80
2023/01/27 10:23:24;;;;;;;;;;;6.20;92.20;;;5.08;76.82;101532.47;6151522;23;19939;-80
2023/01/27 10:25:59;;;;;;;;;;;6.20;92.20;;;4.91;77.42;101533.25;6151530;23;20011;-80
2023/01/27 10:28:29;;;;;;;;;;;6.20;92.00;;;4.88;77.38;101536.19;6150297;23;20035;-80
2023/01/27 10:30:59;;;;;;;;;;;6.20;92.10;;;4.90;77.40;101527.13;6151263;23;19948;-81
2023/01/27 10:33:44;;;;;;;;;;;6.20;92.20;;;4.82;77.36;101534.13;6150605;23;19999;-81
2023/01/27 10:36:17;;;;;;;;;;;6.10;92.20;;;4.73;77.77;101530.56;6150190;23;20003;-80
2023/01/27 10:38:48;;;;;;;;;;;6.10;92.20;;;4.78;78.15;101530.97;6150320;23;19976;-87
2023/01/27 10:41:26;;;;;;;;;;;6.10;92.40;;;4.77;78.14;101534.56;6147733;23;19916;-81
2023/01/27 10:44:04;;;;;;;;;;;6.10;92.40;;;4.84;77.94;101538.31;6149995;23;20007;-81
2023/01/27 10:46:39;;;;;;;;;;;6.10;92.50;;;4.84;77.84;101543.59;6150822;23;19955;-81
2023/01/27 10:49:09;;;;;;;;;;;6.10;92.50;;;4.63;78.87;101535.88;6151749;23;20369;-81
2023/01/27 10:51:39;;;;;;;;;;;6.10;92.40;;;4.78;78.61;101541.56;6150999;23;19920;-80
2023/01/27 10:54:10;;;;;;;;;;;6.10;92.60;;;4.78;78.39;101543.34;6151507;23;19948;-80
2023/01/27 10:56:41;;;;;;;;;;;6.10;92.60;;;4.85;78.10;101539.13;6148671;23;19916;-80
2023/01/27 10:59:15;;;;;;;;;;;6.10;92.60;;;4.86;77.77;101546.09;6151515;23;20254;-80
2023/01/27 11:01:46;;;;;;;;;;;6.10;92.50;;;4.90;77.78;101537.72;6151528;23;20010;-80
2023/01/27 11:04:17;;;;;;;;;;;6.10;92.50;;;4.99;77.49;101529.88;6151829;23;19998;-81
2023/01/27 11:06:46;;;;;;;;;;;6.10;92.40;;;5.02;77.30;101534.84;6151220;23;20002;-80
2023/01/27 11:09:21;;;;;;;;;;;6.20;92.40;;;4.93;77.49;101535.75;6151148;23;19928;-80
2023/01/27 11:11:49;;;;;;;;;;;6.20;92.20;;;4.96;77.42;101528.34;6150888;23;19926;-80
2023/01/27 11:14:27;;;;;;;;;;;6.20;92.10;;;5.01;77.28;101530.56;6151744;23;19921;-80
2023/01/27 11:17:00;;;;;;;;;;;6.20;92.20;;;4.97;77.65;101524.72;6150694;23;19927;-80
2023/01/27 11:19:38;;;;;;;;;;;6.20;92.20;;;5.04;77.11;101523.16;6149539;23;19917;-81
2023/01/27 11:22:14;;;;;;;;;;;6.20;92.20;;;5.07;77.23;101525.50;6151621;23;19994;-80
2023/01/27 11:24:45;;;;;;;;;;;6.30;92.10;;;5.09;76.97;101518.25;6151718;23;19927;-80
2023/01/27 11:27:18;;;;;;;;;;;6.30;92.00;;;5.06;76.94;101523.84;6150709;23;20000;-80
2023/01/27 11:29:47;;;;;;;;;;;6.30;91.90;;;5.02;77.26;101516.34;6150440;23;19916;-81
2023/01/27 11:32:23;;;;;;;;;;;6.30;92.00;;;4.98;77.15;101509.69;6151465;23;20236;-80
2023/01/27 11:34:59;;;;;;;;;;;6.30;91.80;;;5.06;76.90;101523.84;6151654;23;19920;-81
2023/01/27 11:37:30;;;;;;;;;;;6.30;91.90;;;5.06;76.84;101523.84;6150992;23;19920;-80
2023/01/27 11:39:59;;;;;;;;;;;6.30;91.80;;;5.06;77.04;101512.44;6151344;23;20002;-81
2023/01/27 11:42:30;;;;;;;;;;;6.30;91.90;;;5.12;76.82;101510.03;6151275;23;20314;-80
2023/01/27 11:44:57;;;;;;;;;;;6.30;91.90;;;5.03;76.95;101513.56;6149194;23;20042;-81
2023/01/27 11:47:28;;;;;;;;;;;6.30;91.60;;;5.06;76.90;101517.72;6150526;23;19920;-80
2023/01/27 11:49:56;;;;;;;;;;;6.30;91.60;;;5.09;76.36;101514.78;6151173;23;20263;-81
2023/01/27 11:52:26;;;;;;;;;;;6.30;91.60;;;5.00;76.09;101516.50;6151332;23;19920;-80
2023/01/27 11:54:57;;;;;;;;;;;6.30;91.20;;;4.94;76.64;101509.19;6151469;23;20023;-80
2023/01/27 11:57:27;;;;;;;;;;;6.40;91.20;;;4.98;75.90;101510.56;6150268;23;19920;-79
2023/01/27 11:59:58;;;;;;;;;;;6.30;91.10;;;5.06;76.06;101505.31;6149922;23;19921;-79
2023/01/27 12:02:32;;;;;;;;;;;6.30;91.20;;;4.99;75.66;101508.72;6150325;23;19916;-82